Time;durP1;ratioP1;P1;durP2;ratioP2;P2;SDS_P1;SDS_P2;PMS_P1;PMS_P2;Temp;Humidity;BMP_temperature;BMP_pressure;BME280_temperature;BME280_humidity;BME280_pressure;Samples;Min_cycle;Max_cycle;Signal;HPM_P1;HPM_P2
2023/10/15 00:00:13;;;;;;;3.65;1.38;;;12.60;99.90;;;;;;5058393;28;20052;-63
2023/10/15 00:02:43;;;;;;;4.03;1.50;;;12.60;99.90;;;;;;5040242;28;20522;-63
2023/10/15 00:05:32;;;;;;;8.38;1.10;;;12.50;99.90;;;;;;5057809;28;20120;-64
2023/10/15 00:07:58;;;;;;;3.47;1.23;;;12.50;99.90;;;;;;5056757;28;20037;-64
2023/10/15 00:10:25;;;;;;;4.28;1.17;;;12.50;99.90;;;;;;5038887;28;20036;-64
2023/10/15 00:12:52;;;;;;;2.88;1.10;;;12.40;99.90;;;;;;5056301;28;20124;-63
2023/10/15 00:15:20;;;;;;;4.72;1.17;;;12.40;99.90;;;;;;5056517;28;20021;-64
2023/10/15 00:17:46;;;;;;;6.15;1.40;;;12.40;99.90;;;;;;5056922;28;20074;-64
2023/10/15 00:20:16;;;;;;;3.53;1.35;;;12.30;99.90;;;;;;5041498;28;20458;-64
2023/10/15 00:22:44;;;;;;;4.90;1.30;;;12.30;99.90;;;;;;5042694;28;20535;-64
2023/10/15 00:25:14;;;;;;;5.95;2.15;;;12.30;99.90;;;;;;5039605;28;20036;-65
2023/10/15 00:27:44;;;;;;;6.03;1.02;;;12.40;99.90;;;;;;5043364;28;20097;-65
2023/10/15 00:30:13;;;;;;;1.70;1.20;;;12.30;99.90;;;;;;5062792;28;20106;-65
2023/10/15 00:32:45;;;;;;;5.22;1.25;;;12.30;99.90;;;;;;5062850;28;20138;-65
2023/10/15 00:35:13;;;;;;;3.03;1.10;;;12.30;99.90;;;;;;5057167;28;20079;-65
2023/10/15 00:37:56;;;;;;;3.53;1.27;;;12.30;99.90;;;;;;5057834;28;20045;-65
2023/10/15 00:40:23;;;;;;;6.75;1.60;;;12.30;99.90;;;;;;5059056;28;20043;-65
2023/10/15 00:42:48;;;;;;;4.18;1.00;;;12.30;99.90;;;;;;5040560;28;20021;-64
2023/10/15 00:45:19;;;;;;;4.82;1.27;;;12.30;99.90;;;;;;5057099;28;20051;-64
2023/10/15 00:48:00;;;;;;;4.28;1.63;;;12.40;99.90;;;;;;5039760;28;20171;-68
2023/10/15 00:50:31;;;;;;;5.78;1.02;;;12.40;99.90;;;;;;5039062;28;20369;-64
2023/10/15 00:53:03;;;;;;;4.25;1.25;;;12.30;99.90;;;;;;5038379;28;20025;-64
2023/10/15 00:55:29;;;;;;;2.90;1.00;;;12.30;99.90;;;;;;5056088;28;20064;-63
2023/10/15 00:57:56;;;;;;;4.72;1.98;;;12.30;99.90;;;;;;5038302;28;20078;-63
2023/10/15 01:00:48;;;;;;;2.50;1.40;;;12.30;99.90;;;;;;5055535;28;20043;-63
2023/10/15 01:03:16;;;;;;;4.80;1.20;;;12.20;99.90;;;;;;5056104;28;20028;-63
2023/10/15 01:05:53;;;;;;;2.90;1.33;;;12.20;99.90;;;;;;5037861;28;20025;-63
2023/10/15 01:08:24;;;;;;;1.95;1.15;;;12.20;99.90;;;;;;5055561;28;20465;-63
2023/10/15 01:11:18;;;;;;;4.05;1.65;;;12.20;99.90;;;;;;5055874;28;20021;-63
2023/10/15 01:13:44;;;;;;;5.28;1.10;;;12.10;99.90;;;;;;5037843;28;20056;-63
2023/10/15 01:16:13;;;;;;;4.85;1.70;;;12.20;99.90;;;;;;5055723;28;20025;-63
2023/10/15 01:18:39;;;;;;;6.47;1.45;;;12.10;99.90;;;;;;5055932;28;20115;-63
2023/10/15 01:21:09;;;;;;;4.65;1.50;;;12.10;99.90;;;;;;5055747;28;20116;-63
2023/10/15 01:26:09;;;;;;;5.15;1.30;;;12.10;99.90;;;;;;5055448;28;20029;-63
2023/10/15 01:28:38;;;;;;;5.65;1.45;;;12.10;99.90;;;;;;5055363;28;20021;-63
2023/10/15 01:31:06;;;;;;;5.70;1.00;;;12.00;99.90;;;;;;5055306;28;20083;-63
2023/10/15 01:33:46;;;;;;;6.53;1.40;;;12.00;99.90;;;;;;5055839;28;20048;-63
2023/10/15 01:36:16;;;;;;;5.28;1.15;;;12.00;99.90;;;;;;5054914;28;20469;-63
2023/10/15 01:38:44;;;;;;;4.25;1.27;;;12.00;99.90;;;;;;5055275;28;20156;-63
2023/10/15 01:41:13;;;;;;;3.60;1.75;;;12.00;99.90;;;;;;5054967;28;20155;-63
2023/10/15 01:43:46;;;;;;;;;;;11.90;99.90;;;;;;5037678;28;20042;-63
2023/10/15 01:46:12;;;;;;;6.65;1.23;;;11.90;99.90;;;;;;5037925;28;19909;-63
2023/10/15 01:48:41;;;;;;;3.70;1.27;;;11.90;99.90;;;;;;5037082;28;20029;-63
2023/10/15 01:51:07;;;;;;;3.33;1.23;;;11.90;99.90;;;;;;5054974;28;20037;-63
2023/10/15 01:53:37;;;;;;;4.32;1.20;;;12.00;99.90;;;;;;5054880;28;20389;-63
2023/10/15 01:56:03;;;;;;;4.93;0.80;;;12.00;99.90;;;;;;5054837;28;20025;-63
2023/10/15 01:58:32;;;;;;;5.35;1.35;;;11.90;99.90;;;;;;5036542;28;20052;-63
2023/10/15 02:01:13;;;;;;;6.95;1.52;;;11.90;99.90;;;;;;5054718;28;20068;-63
2023/10/15 02:03:41;;;;;;;8.75;1.20;;;11.90;99.90;;;;;;5036877;28;20033;-63
2023/10/15 02:06:07;;;;;;;2.83;1.63;;;11.90;99.90;;;;;;5036784;28;20458;-63
2023/10/15 02:08:39;;;;;;;2.63;1.25;;;11.90;99.90;;;;;;5036497;28;20037;-63
2023/10/15 02:11:16;;;;;;;2.67;1.45;;;11.90;99.90;;;;;;5054958;28;20347;-63
2023/10/15 02:13:47;;;;;;;7.80;2.08;;;11.90;99.90;;;;;;5054861;28;20454;-63
2023/10/15 02:16:18;;;;;;;4.53;1.10;;;11.90;99.90;;;;;;5054698;28;20025;-63
2023/10/15 02:18:51;;;;;;;5.82;2.90;;;11.80;99.90;;;;;;5054630;28;20031;-63
2023/10/15 02:21:16;;;;;;;5.25;1.17;;;11.80;99.90;;;;;;5054229;28;20021;-63
2023/10/15 02:23:50;;;;;;;9.07;1.98;;;11.80;99.90;;;;;;5054503;28;20025;-63
2023/10/15 02:26:23;;;;;;;5.03;1.83;;;11.70;99.90;;;;;;5054386;28;20025;-63
2023/10/15 02:28:53;;;;;;;4.82;1.33;;;11.70;99.90;;;;;;5036400;28;20031;-63
2023/10/15 02:31:22;;;;;;;3.30;1.20;;;11.70;99.90;;;;;;5054135;28;20373;-63
2023/10/15 02:33:49;;;;;;;8.40;1.38;;;11.70;99.90;;;;;;5054089;28;20481;-64
2023/10/15 02:36:23;;;;;;;5.00;1.58;;;11.70;99.90;;;;;;5054273;28;20040;-63
2023/10/15 02:38:52;;;;;;;5.00;1.50;;;11.80;99.90;;;;;;5054327;28;20021;-63
2023/10/15 02:41:21;;;;;;;4.95;1.00;;;11.80;99.90;;;;;;5054125;28;20036;-63
2023/10/15 02:43:56;;;;;;;;;;;11.80;99.90;;;;;;5054376;28;20045;-63
2023/10/15 02:46:36;;;;;;;5.80;2.17;;;11.80;99.90;;;;;;5054301;28;19916;-64
2023/10/15 02:49:06;;;;;;;3.45;1.90;;;11.90;99.90;;;;;;5036642;28;20029;-63
2023/10/15 02:51:35;;;;;;;7.13;2.00;;;11.90;99.90;;;;;;5054223;28;20028;-63
2023/10/15 02:54:24;;;;;;;5.83;1.93;;;11.90;99.90;;;;;;5036119;28;20037;-63
2023/10/15 02:56:50;;;;;;;7.53;1.98;;;11.90;99.90;;;;;;5054010;28;20262;-63
2023/10/15 02:59:16;;;;;;;5.40;2.40;;;11.90;99.90;;;;;;5053269;28;20025;-63
2023/10/15 03:01:45;;;;;;;3.70;2.25;;;11.90;99.90;;;;;;5036485;28;20025;-63
2023/10/15 03:04:11;;;;;;;8.57;2.63;;;11.90;99.90;;;;;;5053845;28;20044;-63
2023/10/15 03:06:41;;;;;;;5.00;1.95;;;11.90;99.90;;;;;;5036226;28;20029;-63
2023/10/15 03:09:11;;;;;;;7.53;2.47;;;11.90;99.90;;;;;;5053937;28;20027;-63
2023/10/15 03:11:38;;;;;;;7.72;1.88;;;11.80;99.90;;;;;;5053284;28;20393;-63
2023/10/15 03:14:06;;;;;;;5.03;1.50;;;11.80;99.90;;;;;;5053546;28;20025;-63
2023/10/15 03:16:33;;;;;;;6.38;1.58;;;11.70;99.90;;;;;;5035746;28;20031;-63
2023/10/15 03:19:07;;;;;;;4.88;1.60;;;11.60;99.90;;;;;;5053749;28;20044;-63
2023/10/15 03:21:37;;;;;;;5.15;1.17;;;11.60;99.90;;;;;;5053734;28;20029;-63
2023/10/15 03:24:05;;;;;;;7.40;1.75;;;11.60;99.90;;;;;;5053722;28;20040;-63
2023/10/15 03:26:33;;;;;;;6.55;1.77;;;11.60;99.90;;;;;;5036150;28;20033;-63
2023/10/15 03:28:59;;;;;;;5.72;1.55;;;11.50;99.90;;;;;;5053402;28;20072;-63
2023/10/15 03:31:28;;;;;;;1.90;1.17;;;11.50;99.90;;;;;;5053532;28;20025;-63
2023/10/15 03:39:16;;;;;;;12.27;1.45;;;11.10;99.90;;;;;;5053402;28;20033;-63
2023/10/15 03:41:52;;;;;;;;;;;11.00;99.90;;;;;;5053842;28;20087;-64
2023/10/15 03:44:27;;;;;;;2.42;1.30;;;10.90;99.90;;;;;;5035415;28;19912;-63
2023/10/15 03:46:57;;;;;;;4.53;1.23;;;10.80;99.90;;;;;;5035937;28;20033;-63
2023/10/15 03:49:27;;;;;;;11.43;2.20;;;10.80;99.90;;;;;;5055224;28;20025;-64
2023/10/15 03:51:53;;;;;;;3.38;1.27;;;10.70;99.90;;;;;;5054651;28;20065;-64
2023/10/15 03:54:22;;;;;;;3.17;1.27;;;10.80;99.90;;;;;;5054027;28;20102;-64
2023/10/15 03:56:52;;;;;;;5.35;1.48;;;10.70;99.90;;;;;;5053290;28;20082;-63
2023/10/15 03:59:19;;;;;;;4.53;1.42;;;10.70;99.90;;;;;;5035303;28;20459;-63
2023/10/15 04:01:48;;;;;;;4.95;1.23;;;10.60;99.90;;;;;;5053134;28;20115;-63
2023/10/15 04:04:18;;;;;;;6.45;1.52;;;10.50;99.90;;;;;;5053522;28;20040;-63
2023/10/15 04:07:03;;;;;;;4.72;1.27;;;10.40;99.90;;;;;;5053037;28;20178;-63
2023/10/15 04:09:33;;;;;;;7.85;1.30;;;10.30;99.90;;;;;;5053539;28;20025;-63
2023/10/15 04:11:59;;;;;;;6.55;1.00;;;10.30;99.90;;;;;;5054298;28;20065;-66
2023/10/15 04:14:28;;;;;;;4.05;1.00;;;10.30;99.90;;;;;;5039101;28;20098;-63
2023/10/15 04:16:55;;;;;;;3.13;1.13;;;10.40;99.90;;;;;;5056634;28;20112;-63
2023/10/15 04:19:21;;;;;;;6.30;0.93;;;10.40;99.90;;;;;;5056679;28;20036;-63
2023/10/15 04:21:47;;;;;;;2.28;1.15;;;10.40;99.90;;;;;;5056439;28;20029;-63
2023/10/15 04:24:18;;;;;;;7.90;1.38;;;10.30;99.90;;;;;;5056019;28;20119;-63
2023/10/15 04:26:48;;;;;;;2.97;1.10;;;10.20;99.90;;;;;;5038537;28;20028;-63
2023/10/15 04:29:17;;;;;;;3.65;1.02;;;10.20;99.90;;;;;;5056485;28;20017;-63
2023/10/15 04:31:56;;;;;;;5.13;1.20;;;10.20;99.90;;;;;;5056007;28;20049;-64
2023/10/15 04:34:22;;;;;;;7.03;1.57;;;10.10;99.90;;;;;;5056296;28;20025;-63
2023/10/15 04:36:48;;;;;;;6.38;1.85;;;10.10;99.90;;;;;;5056007;28;20263;-63
2023/10/15 04:39:16;;;;;;;5.25;0.80;;;10.00;99.90;;;;;;5038836;28;20453;-66
2023/10/15 04:41:41;;;;;;;4.40;1.23;;;10.00;99.90;;;;;;5057659;28;20422;-68
2023/10/15 04:44:12;;;;;;;4.28;1.08;;;10.00;99.90;;;;;;5040219;28;20036;-65
2023/10/15 04:46:42;;;;;;;2.38;1.00;;;10.00;99.90;;;;;;5056597;28;20032;-63
2023/10/15 04:49:08;;;;;;;5.85;0.98;;;9.90;99.90;;;;;;5055753;28;20068;-64
2023/10/15 04:51:42;;;;;;;3.17;1.33;;;9.90;99.90;;;;;;5037947;28;20032;-63
2023/10/15 04:54:09;;;;;;;2.30;0.80;;;10.00;99.90;;;;;;5056335;28;20037;-63
2023/10/15 04:56:35;;;;;;;7.32;1.55;;;9.90;99.90;;;;;;5037997;28;20021;-63
2023/10/15 04:59:00;;;;;;;6.20;1.67;;;9.90;99.90;;;;;;5056279;28;20036;-64
2023/10/15 05:01:26;;;;;;;4.97;0.77;;;9.80;99.90;;;;;;5055950;28;20036;-63
2023/10/15 05:03:52;;;;;;;7.68;1.17;;;9.80;99.90;;;;;;5038044;28;20028;-64
2023/10/15 05:06:17;;;;;;;8.48;1.65;;;9.70;99.90;;;;;;5056192;28;20029;-65
2023/10/15 05:08:47;;;;;;;4.20;1.17;;;9.60;99.90;;;;;;5056862;28;20346;-67
2023/10/15 05:11:13;;;;;;;5.68;1.15;;;9.60;99.90;;;;;;5039334;28;20036;-63
2023/10/15 05:13:42;;;;;;;5.88;1.30;;;9.50;99.90;;;;;;5057169;28;20029;-67
2023/10/15 05:16:08;;;;;;;;;;;9.40;99.90;;;;;;5056745;28;20111;-65
2023/10/15 05:18:34;;;;;;;8.45;1.13;;;9.30;99.90;;;;;;5056632;28;19940;-64
2023/10/15 05:21:03;;;;;;;4.82;1.15;;;9.40;99.90;;;;;;5056389;28;20036;-58
2023/10/15 05:23:28;;;;;;;8.13;1.52;;;9.40;99.90;;;;;;5055238;28;20545;-58
2023/10/15 05:25:54;;;;;;;8.80;1.70;;;9.40;99.90;;;;;;5055682;28;20037;-58
2023/10/15 05:28:20;;;;;;;5.20;1.50;;;9.40;99.90;;;;;;5039126;28;20047;-66
2023/10/15 05:30:46;;;;;;;6.03;1.10;;;9.50;99.90;;;;;;5056304;28;20453;-63
2023/10/15 05:33:12;;;;;;;6.15;2.28;;;9.40;99.90;;;;;;5065832;28;20049;-64
2023/10/15 05:35:37;;;;;;;6.15;1.48;;;9.40;99.90;;;;;;5076738;28;20029;-65
2023/10/15 05:38:08;;;;;;;6.10;1.15;;;9.40;99.90;;;;;;5075440;28;20029;-67
2023/10/15 05:40:34;;;;;;;3.58;1.00;;;9.40;99.90;;;;;;5076987;28;20025;-64
2023/10/15 05:43:00;;;;;;;5.55;1.50;;;9.40;99.90;;;;;;5075477;28;20074;-64
2023/10/15 05:45:27;;;;;;;6.65;1.83;;;9.40;99.90;;;;;;5076232;28;20036;-64
2023/10/15 05:47:52;;;;;;;4.88;1.40;;;9.50;99.90;;;;;;5076098;28;20035;-64
2023/10/15 05:50:18;;;;;;;4.90;1.38;;;9.50;99.90;;;;;;5076349;28;20032;-64
2023/10/15 05:52:43;;;;;;;5.28;1.17;;;9.60;99.90;;;;;;5076220;28;20035;-64
2023/10/15 05:55:11;;;;;;;8.10;1.73;;;9.60;99.90;;;;;;5075635;28;20051;-67
2023/10/15 05:57:37;;;;;;;8.90;1.42;;;9.60;99.90;;;;;;5075714;28;20020;-64
2023/10/15 06:00:19;;;;;;;3.08;0.98;;;9.70;99.90;;;;;;5075740;28;20035;-65
2023/10/15 06:02:48;;;;;;;3.85;1.05;;;9.70;99.90;;;;;;5076616;28;20024;-69
2023/10/15 06:05:14;;;;;;;3.95;1.00;;;9.80;99.90;;;;;;5075737;28;20025;-64
2023/10/15 06:07:44;;;;;;;7.63;0.98;;;9.90;99.90;;;;;;5073548;28;20032;-63
2023/10/15 06:10:11;;;;;;;4.85;1.00;;;10.00;99.90;;;;;;5074854;28;20369;-64
2023/10/15 06:12:41;;;;;;;3.40;0.70;;;10.20;99.90;;;;;;5074745;28;20115;-64
2023/10/15 06:15:08;;;;;;;4.28;0.95;;;10.30;99.90;;;;;;5074566;28;20025;-65
2023/10/15 06:17:34;;;;;;;7.20;1.02;;;10.40;99.90;;;;;;5074120;28;20025;-64
2023/10/15 06:20:18;;;;;;;7.28;0.98;;;10.50;99.90;;;;;;5075972;28;20036;-57
2023/10/15 06:22:46;;;;;;;6.18;2.88;;;10.60;99.90;;;;;;5075748;28;20039;-63
2023/10/15 06:25:13;;;;;;;5.80;1.33;;;10.90;99.90;;;;;;5074505;28;20039;-64
2023/10/15 06:27:39;;;;;;;3.17;0.57;;;11.10;99.90;;;;;;5074773;28;20111;-63
2023/10/15 06:30:08;;;;;;;3.00;0.98;;;11.20;99.90;;;;;;5074537;28;20028;-68
2023/10/15 06:32:34;;;;;;;6.10;0.70;;;11.20;99.90;;;;;;5065805;28;20049;-64
2023/10/15 06:35:00;;;;;;;5.95;1.10;;;11.30;99.90;;;;;;5037656;28;20043;-63
2023/10/15 06:37:26;;;;;;;4.55;1.02;;;11.30;99.90;;;;;;5055765;28;20021;-64
2023/10/15 06:39:52;;;;;;;4.55;1.23;;;11.30;99.90;;;;;;5055807;28;20036;-64
2023/10/15 06:42:17;;;;;;;6.05;1.10;;;11.40;99.90;;;;;;5056315;28;20373;-65
2023/10/15 06:44:43;;;;;;;4.75;1.15;;;11.50;99.90;;;;;;5054089;28;20120;-65
2023/10/15 06:47:09;;;;;;;6.00;0.80;;;11.50;99.90;;;;;;5054298;28;20384;-65
2023/10/15 06:49:34;;;;;;;6.38;1.25;;;11.70;99.90;;;;;;5054126;28;20465;-64
2023/10/15 06:52:03;;;;;;;5.80;1.92;;;11.80;99.90;;;;;;5054098;28;20021;-65
2023/10/15 06:54:29;;;;;;;7.18;1.25;;;11.80;99.90;;;;;;5054109;28;20051;-64
2023/10/15 06:56:54;;;;;;;9.75;1.08;;;11.80;99.90;;;;;;5037254;28;20447;-68
2023/10/15 06:59:20;;;;;;;3.72;1.13;;;11.90;99.90;;;;;;5058177;28;20100;-66
2023/10/15 07:01:45;;;;;;;1.42;0.68;;;12.00;99.90;;;;;;5057703;28;20021;-71
2023/10/15 07:04:12;;;;;;;6.00;1.67;;;12.10;99.90;;;;;;5057536;28;20427;-65
2023/10/15 07:06:39;;;;;;;6.28;1.85;;;12.30;99.90;;;;;;5039430;28;20039;-68
2023/10/15 07:09:06;;;;;;;3.97;0.75;;;12.50;99.90;;;;;;5055186;28;20025;-64
2023/10/15 07:11:31;;;;;;;5.75;1.25;;;12.60;99.90;;;;;;5036397;28;20473;-63
2023/10/15 07:13:57;;;;;;;2.97;0.80;;;12.70;99.90;;;;;;5053970;28;20029;-64
2023/10/15 07:16:24;;;;;;;5.32;1.33;;;12.90;99.90;;;;;;5053961;28;20071;-64
2023/10/15 07:18:50;;;;;;;5.10;1.65;;;13.00;99.80;;;;;;5054101;28;20489;-64
2023/10/15 07:21:17;;;;;;;6.30;0.95;;;13.30;99.60;;;;;;5036872;28;20470;-64
2023/10/15 07:23:43;;;;;;;6.07;0.82;;;13.50;98.40;;;;;;5055413;28;20037;-65
2023/10/15 07:26:09;;;;;;;7.05;0.82;;;13.90;97.80;;;;;;5054722;28;20028;-65
2023/10/15 07:28:34;;;;;;;4.45;0.60;;;14.20;97.30;;;;;;5055112;28;20397;-63
2023/10/15 07:31:00;;;;;;;3.30;0.80;;;14.60;96.20;;;;;;5053837;28;20057;-63
2023/10/15 07:33:25;;;;;;;4.07;0.82;;;15.00;95.10;;;;;;5053533;28;20080;-63
2023/10/15 07:35:51;;;;;;;2.60;0.50;;;15.50;94.20;;;;;;5053779;28;20049;-64
2023/10/15 07:38:18;;;;;;;6.20;0.85;;;15.90;92.80;;;;;;5053632;28;20029;-64
2023/10/15 07:40:43;;;;;;;5.25;0.77;;;16.10;92.00;;;;;;5035538;28;20031;-64
2023/10/15 07:43:11;;;;;;;4.80;1.30;;;16.30;90.80;;;;;;5035389;28;20111;-64
2023/10/15 07:45:37;;;;;;;2.65;1.00;;;16.40;90.50;;;;;;5053955;28;20033;-64
2023/10/15 07:48:05;;;;;;;2.47;1.00;;;16.00;90.60;;;;;;5057031;28;20047;-64
2023/10/15 07:50:34;;;;;;;4.47;1.20;;;16.30;91.60;;;;;;5057134;28;20079;-64
2023/10/15 07:53:00;;;;;;;5.78;0.95;;;15.90;92.60;;;;;;5056944;28;20028;-65
2023/10/15 07:55:27;;;;;;;4.60;1.27;;;16.00;92.80;;;;;;5056980;28;20032;-64
2023/10/15 07:57:53;;;;;;;3.85;1.38;;;15.60;93.90;;;;;;5056941;28;20445;-64
2023/10/15 08:00:33;;;;;;;7.18;1.20;;;14.90;95.00;;;;;;5056833;28;20511;-64
2023/10/15 08:03:00;;;;;;;10.70;1.35;;;14.40;96.30;;;;;;5057300;28;20057;-64
2023/10/15 08:05:31;;;;;;;4.50;1.35;;;14.00;96.90;;;;;;5060820;28;20025;-62
2023/10/15 08:07:57;;;;;;;6.88;1.30;;;13.90;97.60;;;;;;5066738;28;21441;-63
2023/10/15 08:10:32;;;;;;;8.00;1.30;;;13.70;98.90;;;;;;5063365;28;20023;-63
2023/10/15 08:13:03;;;;;;;6.88;1.10;;;13.80;99.30;;;;;;5067542;28;20025;-65
2023/10/15 08:15:33;;;;;;;4.95;1.33;;;13.90;98.80;;;;;;5076550;28;20055;-63
2023/10/15 08:18:01;;;;;;;;;;;13.80;99.40;;;;;;5061317;28;20036;-63
2023/10/15 08:20:31;;;;;;;3.45;1.27;;;13.70;99.30;;;;;;5038863;28;20353;-69
2023/10/15 08:22:57;;;;;;;4.60;1.20;;;13.50;99.10;;;;;;5052308;28;20050;-65
2023/10/15 08:25:22;;;;;;;6.00;0.98;;;13.30;99.40;;;;;;5071541;28;20029;-65
2023/10/15 08:27:48;;;;;;;5.63;1.00;;;13.20;99.90;;;;;;5057766;28;20033;-65
2023/10/15 08:30:17;;;;;;;3.00;1.42;;;13.10;99.90;;;;;;5040559;28;20025;-65
2023/10/15 08:32:44;;;;;;;7.85;1.30;;;13.00;99.90;;;;;;5061932;28;20489;-66
2023/10/15 08:35:10;;;;;;;5.35;1.08;;;;;;;;;;5060088;28;20112;-66
2023/10/15 08:37:40;;;;;;;4.63;0.63;;;12.60;99.30;;;;;;5041477;28;20074;-69
2023/10/15 08:40:06;;;;;;;6.78;1.30;;;12.50;99.20;;;;;;5070184;28;20025;-68
2023/10/15 08:42:39;;;;;;;11.65;1.52;;;12.30;99.40;;;;;;5069749;28;20442;-65
2023/10/15 08:45:07;;;;;;;3.72;1.00;;;12.20;99.40;;;;;;5057170;28;20469;-65
2023/10/15 08:47:33;;;;;;;6.43;1.17;;;12.20;99.60;;;;;;5056314;28;20041;-64
2023/10/15 08:49:59;;;;;;;4.82;1.27;;;12.30;99.90;;;;;;5056178;28;20107;-64
2023/10/15 08:52:26;;;;;;;4.60;1.00;;;12.30;99.70;;;;;;5038392;28;20036;-64
2023/10/15 08:54:56;;;;;;;3.95;0.82;;;12.30;99.70;;;;;;5056709;28;20384;-64
2023/10/15 08:57:22;;;;;;;7.10;1.35;;;12.30;99.00;;;;;;5055332;28;20057;-66
2023/10/15 08:59:50;;;;;;;7.65;1.50;;;12.30;99.90;;;;;;5055970;28;20083;-64
2023/10/15 09:02:18;;;;;;;6.05;1.15;;;12.20;99.90;;;;;;5038158;28;20029;-65
2023/10/15 09:04:45;;;;;;;4.07;1.30;;;12.30;99.90;;;;;;5056200;28;20385;-64
2023/10/15 09:07:14;;;;;;;4.13;0.80;;;12.20;99.60;;;;;;5055641;28;20024;-64
2023/10/15 09:09:40;;;;;;;3.28;0.88;;;12.00;99.90;;;;;;5075519;28;20040;-65
2023/10/15 09:12:06;;;;;;;3.83;1.48;;;12.00;99.90;;;;;;5075862;28;20035;-63
2023/10/15 09:14:46;;;;;;;3.50;0.77;;;11.90;99.90;;;;;;5060492;28;20028;-63
2023/10/15 09:17:16;;;;;;;6.15;1.00;;;11.90;99.90;;;;;;5066892;28;20036;-63
2023/10/15 09:19:49;;;;;;;5.45;1.25;;;11.80;99.90;;;;;;5075960;28;20032;-57
2023/10/15 09:22:15;;;;;;;3.53;1.10;;;11.80;99.90;;;;;;5075403;28;20028;-64
2023/10/15 09:24:49;;;;;;;7.20;1.77;;;11.90;99.90;;;;;;5075413;28;20028;-64
2023/10/15 09:27:15;;;;;;;3.42;1.48;;;11.80;99.90;;;;;;5057319;28;20107;-63
2023/10/15 09:29:41;;;;;;;4.30;1.40;;;11.80;99.90;;;;;;5075297;28;20108;-64
2023/10/15 09:32:07;;;;;;;4.88;1.00;;;11.80;99.90;;;;;;5067108;28;20052;-64
2023/10/15 09:34:37;;;;;;;4.40;1.02;;;12.00;99.90;;;;;;5094164;28;20028;-63
2023/10/15 09:37:05;;;;;;;3.30;0.82;;;12.20;99.90;;;;;;5095516;28;20024;-64
2023/10/15 09:39:31;;;;;;;8.85;1.38;;;12.50;99.90;;;;;;5092601;28;20032;-64
2023/10/15 09:41:57;;;;;;;6.13;0.90;;;12.60;99.50;;;;;;5074042;28;20029;-64
2023/10/15 09:44:24;;;;;;;5.82;1.80;;;12.80;99.10;;;;;;5075144;28;20403;-64
2023/10/15 09:46:50;;;;;;;9.90;1.17;;;13.00;99.20;;;;;;5075094;28;20036;-64
2023/10/15 09:49:18;;;;;;;6.70;1.00;;;13.20;99.00;;;;;;5075876;28;20031;-69
2023/10/15 09:51:47;;;;;;;8.23;1.45;;;13.20;97.60;;;;;;5075254;28;20150;-59
2023/10/15 09:54:14;;;;;;;4.57;1.20;;;13.30;98.80;;;;;;5076533;28;20020;-59
2023/10/15 09:56:41;;;;;;;4.90;1.05;;;13.50;98.10;;;;;;5075855;28;20040;-67
2023/10/15 09:59:07;;;;;;;3.92;0.80;;;13.60;97.30;;;;;;5077036;28;20028;-57
2023/10/15 10:01:36;;;;;;;4.78;0.93;;;13.60;96.50;;;;;;5076155;28;20029;-57
2023/10/15 10:04:18;;;;;;;2.95;1.00;;;13.80;96.20;;;;;;5076533;28;20120;-57
2023/10/15 10:07:00;;;;;;;5.72;0.85;;;14.00;95.80;;;;;;5074761;28;20044;-65
2023/10/15 10:09:47;;;;;;;4.30;0.80;;;13.90;93.70;;;;;;5073364;28;20423;-65
2023/10/15 10:12:46;;;;;;;5.22;1.88;;;13.80;94.00;;;;;;5073586;28;20119;-65
2023/10/15 10:15:41;;;;;;;4.00;0.50;;;14.00;93.40;;;;;;5073568;28;20031;-64
2023/10/15 10:18:07;;;;;;;6.57;0.90;;;14.00;92.30;;;;;;5059897;28;20511;-65
2023/10/15 10:20:36;;;;;;;5.65;1.77;;;14.10;91.30;;;;;;5073481;28;20033;-65
2023/10/15 10:23:05;;;;;;;3.38;0.50;;;14.00;90.70;;;;;;5074184;28;20032;-65
2023/10/15 10:25:52;;;;;;;1.90;0.32;;;14.00;91.40;;;;;;5075031;28;20033;-65
2023/10/15 10:28:21;;;;;;;4.50;0.60;;;14.10;91.50;;;;;;5074301;28;20404;-58
2023/10/15 10:30:53;;;;;;;;;;;14.20;92.00;;;;;;5074219;28;20025;-57
2023/10/15 10:33:49;;;;;;;5.47;0.80;;;14.40;92.10;;;;;;5073173;28;20323;-57
2023/10/15 10:36:18;;;;;;;7.25;0.80;;;14.60;91.40;;;;;;5056612;28;20492;-57
2023/10/15 10:38:44;;;;;;;;;;;14.60;90.40;;;;;;5074324;28;20024;-58
2023/10/15 10:41:13;;;;;;;4.85;0.80;;;14.70;90.30;;;;;;5073749;28;19905;-57
2023/10/15 10:43:46;;;;;;;5.57;1.20;;;14.90;90.80;;;;;;5073759;28;20111;-57
2023/10/15 10:46:22;;;;;;;6.38;0.90;;;14.80;90.30;;;;;;5073597;28;20342;-57
2023/10/15 10:49:04;;;;;;;1.67;0.50;;;14.80;89.90;;;;;;5073833;28;20111;-57
2023/10/15 10:51:36;;;;;;;5.80;1.30;;;14.90;90.30;;;;;;5072630;28;20380;-57
2023/10/15 10:54:03;;;;;;;2.28;0.80;;;15.00;88.50;;;;;;5073744;28;20111;-57
2023/10/15 10:56:40;;;;;;;4.30;1.00;;;15.10;88.70;;;;;;5073653;28;20024;-57
2023/10/15 10:59:07;;;;;;;5.63;2.60;;;15.10;88.70;;;;;;5072344;28;20056;-57
2023/10/15 11:01:40;;;;;;;2.33;1.23;;;15.20;87.20;;;;;;5072323;28;20421;-57
2023/10/15 11:04:07;;;;;;;3.88;0.73;;;15.10;87.40;;;;;;5073746;28;20028;-57
2023/10/15 11:06:33;;;;;;;7.90;1.65;;;15.00;88.80;;;;;;5073564;28;20096;-57
2023/10/15 11:09:00;;;;;;;6.85;1.83;;;14.90;88.40;;;;;;5072256;28;20052;-65
2023/10/15 11:11:26;;;;;;;3.00;0.75;;;14.90;87.50;;;;;;5072161;28;20111;-65
2023/10/15 11:13:55;;;;;;;3.92;0.90;;;14.90;89.00;;;;;;5072283;28;20119;-65
2023/10/15 11:16:21;;;;;;;3.30;0.68;;;14.80;88.10;;;;;;5073535;28;20415;-65
2023/10/15 11:18:47;;;;;;;5.75;1.10;;;14.90;88.50;;;;;;5072134;28;20469;-65
2023/10/15 11:21:15;;;;;;;2.22;0.75;;;15.10;87.40;;;;;;5074959;28;20036;-65
2023/10/15 11:23:41;;;;;;;6.15;0.90;;;15.20;84.90;;;;;;5077515;28;20107;-65
2023/10/15 11:26:08;;;;;;;3.45;0.80;;;15.00;84.90;;;;;;5077525;28;20111;-65
2023/10/15 11:28:34;;;;;;;2.83;0.85;;;15.10;86.90;;;;;;5076342;28;20435;-65
2023/10/15 11:31:01;;;;;;;3.70;1.13;;;15.30;86.00;;;;;;5081185;28;20019;-65
2023/10/15 11:33:28;;;;;;;2.45;0.68;;;15.30;83.90;;;;;;5072579;28;20127;-65
2023/10/15 11:35:55;;;;;;;3.45;0.57;;;14.90;84.70;;;;;;5043281;28;20029;-65
2023/10/15 11:38:20;;;;;;;2.75;0.93;;;14.60;85.60;;;;;;5040258;28;20040;-65
2023/10/15 11:40:46;;;;;;;4.25;0.55;;;14.40;85.20;;;;;;5077666;28;20032;-63
2023/10/15 11:43:19;;;;;;;2.25;0.73;;;14.60;86.10;;;;;;5077079;28;20384;-65
2023/10/15 11:45:46;;;;;;;3.60;0.50;;;14.90;86.70;;;;;;5076877;28;20392;-67
2023/10/15 11:48:13;;;;;;;2.40;0.75;;;15.10;86.60;;;;;;5047066;28;20107;-67
2023/10/15 11:50:41;;;;;;;1.38;0.50;;;15.40;84.60;;;;;;5056962;28;20064;-67
2023/10/15 11:53:41;;;;;;;5.33;0.70;;;15.30;85.10;;;;;;5058255;28;20048;-67
2023/10/15 11:56:16;;;;;;;2.92;0.90;;;15.10;83.90;;;;;;5040066;28;20036;-68
2023/10/15 11:58:45;;;;;;;2.72;0.70;;;15.00;86.60;;;;;;5058623;28;20033;-66
2023/10/15 12:01:14;;;;;;;2.55;0.93;;;15.20;84.20;;;;;;5058372;28;20025;-65
2023/10/15 12:03:44;;;;;;;2.17;0.75;;;15.20;85.30;;;;;;5057631;28;20048;-65
2023/10/15 12:06:09;;;;;;;;;;;15.30;82.80;;;;;;5058470;28;20461;-63
2023/10/15 12:08:35;;;;;;;4.78;1.08;;;15.20;82.80;;;;;;5076609;28;19911;-65
2023/10/15 12:11:01;;;;;;;3.75;0.73;;;14.90;84.00;;;;;;5076286;28;20031;-64
2023/10/15 12:13:26;;;;;;;2.35;0.68;;;15.10;83.40;;;;;;5076347;28;20484;-64
2023/10/15 12:15:53;;;;;;;4.13;1.02;;;16.20;80.90;;;;;;5076597;28;20036;-73
2023/10/15 12:18:18;;;;;;;5.47;1.08;;;17.90;77.20;;;;;;5076574;28;20063;-65
2023/10/15 12:20:44;;;;;;;4.22;0.90;;;19.50;72.90;;;;;;5076561;28;20020;-65
2023/10/15 12:23:09;;;;;;;3.10;0.70;;;20.60;68.30;;;;;;5076508;28;20568;-64
2023/10/15 12:25:41;;;;;;;2.83;1.00;;;21.00;63.60;;;;;;5076372;28;20028;-64
2023/10/15 12:28:08;;;;;;;5.10;1.40;;;21.20;60.50;;;;;;5058693;28;20461;-64
2023/10/15 12:30:34;;;;;;;6.30;0.68;;;20.40;61.00;;;;;;5071263;28;20025;-64
2023/10/15 12:32:59;;;;;;;3.47;0.52;;;19.10;61.50;;;;;;5054777;28;20052;-64
2023/10/15 12:35:27;;;;;;;2.65;1.17;;;17.70;63.20;;;;;;5055487;28;20087;-64
2023/10/15 12:38:03;;;;;;;2.75;0.52;;;17.10;66.70;;;;;;5056355;28;20032;-64
2023/10/15 12:40:32;;;;;;;3.38;0.60;;;18.00;65.60;;;;;;5056288;28;20473;-64
2023/10/15 12:43:08;;;;;;;3.80;0.80;;;18.30;64.40;;;;;;5056187;28;20029;-65
2023/10/15 12:45:34;;;;;;;2.75;0.90;;;18.00;64.00;;;;;;5038184;28;20120;-65
2023/10/15 12:48:01;;;;;;;2.85;0.73;;;17.20;64.30;;;;;;5038123;28;20025;-64
2023/10/15 12:50:27;;;;;;;6.35;1.08;;;16.70;66.20;;;;;;5056125;28;20025;-64
2023/10/15 12:52:56;;;;;;;4.78;0.70;;;16.20;65.70;;;;;;5060989;28;20052;-64
2023/10/15 12:55:23;;;;;;;4.17;0.93;;;15.90;67.60;;;;;;5059794;28;20020;-65
2023/10/15 12:57:50;;;;;;;4.38;0.60;;;15.70;69.10;;;;;;5075901;28;20414;-64
2023/10/15 13:00:17;;;;;;;3.47;0.98;;;15.50;68.70;;;;;;5066272;28;20114;-64
2023/10/15 13:02:51;;;;;;;2.30;0.45;;;15.20;69.90;;;;;;5055562;28;20029;-64
2023/10/15 13:05:19;;;;;;;3.65;0.85;;;15.00;70.00;;;;;;5055346;28;20025;-64
2023/10/15 13:07:45;;;;;;;2.97;0.80;;;14.90;70.90;;;;;;5055928;28;20075;-63